createdAt,value
2023-04-01T00:00:16.829Z,633.00
2023-04-01T00:01:16.874Z,634.00
2023-04-01T00:02:16.938Z,638.00
2023-04-01T00:03:17.074Z,639.00
2023-04-01T00:04:17.063Z,640.00
2023-04-01T00:05:16.992Z,638.00
2023-04-01T00:06:17.065Z,636.00
2023-04-01T00:07:17.039Z,636.00
2023-04-01T00:08:17.081Z,634.00
2023-04-01T00:09:17.110Z,636.00
2023-04-01T00:10:17.141Z,636.00
2023-04-01T00:11:17.175Z,636.00
2023-04-01T00:12:17.198Z,636.00
2023-04-01T00:13:17.291Z,636.00
2023-04-01T00:14:17.273Z,637.00
2023-04-01T00:15:17.269Z,638.00
2023-04-01T00:16:22.373Z,640.00
2023-04-01T00:17:18.925Z,640.00
2023-04-01T00:18:17.292Z,641.00
2023-04-01T00:19:17.331Z,641.00
2023-04-01T00:20:17.262Z,638.00
2023-04-01T00:21:17.249Z,639.00
2023-04-01T00:22:17.255Z,634.00
2023-04-01T00:23:17.273Z,630.00
2023-04-01T00:24:17.237Z,628.00
2023-04-01T00:25:17.277Z,628.00
2023-04-01T00:26:17.253Z,632.00
2023-04-01T00:27:17.220Z,634.00
2023-04-01T00:28:17.273Z,634.00
2023-04-01T00:29:17.224Z,635.00
2023-04-01T00:30:17.210Z,637.00
2023-04-01T00:31:17.286Z,634.00
2023-04-01T00:32:17.224Z,632.00
2023-04-01T00:33:17.216Z,629.00
2023-04-01T00:34:17.257Z,628.00
2023-04-01T00:35:17.247Z,627.00
2023-04-01T00:36:17.334Z,625.00
2023-04-01T00:37:17.297Z,623.00
2023-04-01T00:38:17.341Z,619.00
2023-04-01T00:39:17.379Z,619.00
2023-04-01T00:40:17.430Z,617.00
2023-04-01T00:41:17.461Z,616.00
2023-04-01T00:42:17.463Z,614.00
2023-04-01T00:43:17.547Z,614.00
2023-04-01T00:44:17.528Z,615.00
2023-04-01T00:45:17.609Z,616.00
2023-04-01T00:46:17.665Z,622.00
2023-04-01T00:47:17.644Z,625.00
2023-04-01T00:48:17.679Z,624.00
2023-04-01T00:49:17.723Z,622.00
2023-04-01T00:50:17.773Z,622.00
2023-04-01T00:51:17.767Z,620.00
2023-04-01T00:52:17.821Z,621.00
2023-04-01T00:53:17.846Z,620.00
2023-04-01T00:54:17.893Z,621.00
2023-04-01T00:55:17.980Z,620.00
2023-04-01T00:56:17.915Z,619.00
2023-04-01T00:57:18.014Z,622.00
2023-04-01T00:58:17.972Z,628.00
2023-04-01T00:59:18.040Z,630.00
2023-04-01T01:00:18.042Z,628.00
2023-04-01T01:01:18.163Z,627.00
2023-04-01T01:02:18.131Z,627.00
2023-04-01T01:03:18.187Z,628.00
2023-04-01T01:04:18.197Z,627.00
2023-04-01T01:05:18.232Z,626.00
2023-04-01T01:06:18.287Z,624.00
2023-04-01T01:07:18.285Z,623.00
2023-04-01T01:08:18.360Z,620.00
2023-04-01T01:09:18.359Z,619.00
2023-04-01T01:10:18.372Z,617.00
2023-04-01T01:11:18.394Z,615.00
2023-04-01T01:12:18.444Z,616.00
2023-04-01T01:13:18.452Z,616.00
2023-04-01T01:14:18.494Z,616.00
2023-04-01T01:15:18.497Z,616.00
2023-04-01T01:16:18.599Z,616.00
2023-04-01T01:17:18.552Z,616.00
2023-04-01T01:18:19.515Z,612.00
2023-04-01T01:19:18.633Z,611.00
2023-04-01T01:20:25.927Z,612.00
2023-04-01T01:21:19.674Z,616.00
2023-04-01T01:22:18.632Z,618.00
2023-04-01T01:23:18.615Z,617.00
2023-04-01T01:24:18.636Z,613.00
2023-04-01T01:25:18.609Z,613.00
2023-04-01T01:26:18.592Z,612.00
2023-04-01T01:27:18.613Z,613.00
2023-04-01T01:28:18.606Z,609.00
2023-04-01T01:29:18.610Z,614.00
2023-04-01T01:30:18.576Z,615.00
2023-04-01T01:31:18.603Z,614.00
2023-04-01T01:32:18.564Z,614.00
2023-04-01T01:33:18.587Z,613.00
2023-04-01T01:34:18.538Z,611.00
2023-04-01T01:35:18.579Z,609.00
2023-04-01T01:36:18.568Z,607.00
2023-04-01T01:37:18.593Z,605.00
2023-04-01T01:38:18.616Z,606.00
2023-04-01T01:39:18.627Z,604.00
2023-04-01T01:40:18.683Z,604.00
2023-04-01T01:41:18.735Z,601.00
2023-04-01T01:42:18.717Z,602.00
2023-04-01T01:43:18.800Z,605.00
2023-04-01T01:44:18.801Z,608.00
2023-04-01T01:45:18.889Z,609.00
2023-04-01T01:46:18.881Z,609.00
2023-04-01T01:47:18.876Z,609.00
2023-04-01T01:48:18.937Z,611.00
2023-04-01T01:49:18.978Z,608.00
2023-04-01T01:50:19.062Z,607.00
2023-04-01T01:51:19.034Z,606.00
2023-04-01T01:52:19.055Z,604.00
2023-04-01T01:53:19.097Z,605.00
2023-04-01T01:54:19.161Z,607.00
2023-04-01T01:55:19.304Z,608.00
2023-04-01T01:56:19.207Z,608.00
2023-04-01T01:57:19.303Z,608.00
2023-04-01T01:58:19.278Z,607.00
2023-04-01T01:59:19.317Z,608.00
2023-04-01T02:00:19.353Z,609.00
2023-04-01T02:01:19.410Z,610.00
2023-04-01T02:02:19.411Z,610.00
2023-04-01T02:03:19.443Z,611.00
2023-04-01T02:04:19.501Z,611.00
2023-04-01T02:05:19.557Z,609.00
2023-04-01T02:06:19.580Z,608.00
2023-04-01T02:07:19.611Z,607.00
2023-04-01T02:08:19.670Z,603.00
2023-04-01T02:09:19.674Z,602.00
2023-04-01T02:10:19.742Z,601.00
2023-04-01T02:11:19.760Z,595.00
2023-04-01T02:12:19.803Z,596.00
2023-04-01T02:13:19.882Z,597.00
2023-04-01T02:14:19.871Z,599.00
2023-04-01T02:15:19.920Z,598.00
2023-04-01T02:16:19.953Z,596.00
2023-04-01T02:17:20.023Z,598.00
2023-04-01T02:18:20.025Z,594.00
2023-04-01T02:19:20.127Z,590.00
2023-04-01T02:20:20.131Z,591.00
2023-04-01T02:21:20.133Z,592.00
2023-04-01T02:22:20.174Z,594.00
2023-04-01T02:23:20.237Z,597.00
2023-04-01T02:24:20.287Z,597.00
2023-04-01T02:25:20.357Z,598.00
2023-04-01T02:26:20.374Z,599.00
2023-04-01T02:27:20.398Z,599.00
2023-04-01T02:28:20.431Z,597.00
2023-04-01T02:29:20.461Z,595.00
2023-04-01T02:30:20.507Z,596.00
2023-04-01T02:31:20.565Z,596.00
2023-04-01T02:32:20.598Z,596.00
2023-04-01T02:33:20.609Z,595.00
2023-04-01T02:34:20.673Z,595.00
2023-04-01T02:35:20.723Z,594.00
2023-04-01T02:36:20.783Z,591.00
2023-04-01T02:37:20.835Z,587.00
2023-04-01T02:38:20.826Z,586.00
2023-04-01T02:39:20.917Z,583.00
2023-04-01T02:40:20.951Z,582.00
2023-04-01T02:41:20.950Z,584.00
2023-04-01T02:42:20.988Z,586.00
2023-04-01T02:43:21.084Z,588.00
2023-04-01T02:44:21.107Z,591.00
2023-04-01T02:45:21.157Z,590.00
2023-04-01T02:46:21.245Z,589.00
2023-04-01T02:47:21.315Z,586.00
2023-04-01T02:48:21.282Z,588.00
2023-04-01T02:49:21.323Z,589.00
2023-04-01T02:50:21.377Z,592.00
2023-04-01T02:51:21.456Z,591.00
2023-04-01T02:52:21.477Z,591.00
2023-04-01T02:53:21.496Z,591.00
2023-04-01T02:54:21.557Z,589.00
2023-04-01T02:55:21.572Z,589.00
2023-04-01T02:56:21.648Z,589.00
2023-04-01T02:57:21.721Z,590.00
2023-04-01T02:58:21.716Z,589.00
2023-04-01T02:59:21.776Z,589.00
2023-04-01T03:00:21.822Z,589.00
2023-04-01T03:01:21.973Z,588.00
2023-04-01T03:02:21.957Z,586.00
2023-04-01T03:03:21.980Z,584.00
2023-04-01T03:04:22.010Z,584.00
2023-04-01T03:05:22.052Z,582.00
2023-04-01T03:06:22.096Z,581.00
2023-04-01T03:07:22.153Z,582.00
2023-04-01T03:08:22.206Z,580.00
2023-04-01T03:09:22.254Z,579.00
2023-04-01T03:10:22.304Z,579.00
2023-04-01T03:11:22.341Z,578.00
2023-04-01T03:12:22.422Z,579.00
2023-04-01T03:13:22.465Z,584.00
2023-04-01T03:14:22.523Z,586.00
2023-04-01T03:15:22.548Z,585.00
2023-04-01T03:16:22.688Z,584.00
2023-04-01T03:17:22.661Z,582.00
2023-04-01T03:18:22.681Z,583.00
2023-04-01T03:19:22.753Z,582.00
2023-04-01T03:20:22.778Z,580.00
2023-04-01T03:21:22.853Z,579.00
2023-04-01T03:22:22.913Z,576.00
2023-04-01T03:23:22.962Z,573.00
2023-04-01T03:24:23.025Z,573.00
2023-04-01T03:25:23.044Z,574.00
2023-04-01T03:26:23.090Z,578.00
2023-04-01T03:27:23.162Z,580.00
2023-04-01T03:28:23.217Z,582.00
2023-04-01T03:29:23.356Z,583.00
2023-04-01T03:30:23.338Z,584.00
2023-04-01T03:31:23.917Z,589.00
2023-04-01T03:32:23.416Z,588.00
2023-04-01T03:33:23.442Z,590.00
2023-04-01T03:34:23.476Z,591.00
2023-04-01T03:35:23.513Z,590.00
2023-04-01T03:36:23.681Z,591.00
2023-04-01T03:37:23.636Z,589.00
2023-04-01T03:38:23.691Z,587.00
2023-04-01T03:39:23.718Z,585.00
2023-04-01T03:40:23.803Z,586.00
2023-04-01T03:41:23.843Z,585.00
2023-04-01T03:42:23.881Z,585.00
2023-04-01T03:43:23.939Z,588.00
2023-04-01T03:44:23.995Z,590.00
2023-04-01T03:45:24.012Z,591.00
2023-04-01T03:46:24.144Z,590.00
2023-04-01T03:47:24.157Z,590.00
2023-04-01T03:48:24.142Z,590.00
2023-04-01T03:49:24.193Z,591.00
2023-04-01T03:50:24.264Z,591.00
2023-04-01T03:51:24.284Z,589.00
2023-04-01T03:52:24.353Z,590.00
2023-04-01T03:53:24.401Z,594.00
2023-04-01T03:54:24.443Z,595.00
2023-04-01T03:55:24.470Z,594.00
2023-04-01T03:56:24.526Z,593.00
2023-04-01T03:57:24.644Z,590.00
2023-04-01T03:58:24.624Z,588.00
2023-04-01T03:59:24.633Z,587.00
2023-04-01T04:00:24.716Z,589.00
2023-04-01T04:01:24.709Z,590.00
2023-04-01T04:02:24.829Z,592.00
2023-04-01T04:03:24.952Z,591.00
2023-04-01T04:04:24.927Z,592.00
2023-04-01T04:05:24.893Z,593.00
2023-04-01T04:06:24.924Z,593.00
2023-04-01T04:07:24.957Z,593.00
2023-04-01T04:08:25.016Z,592.00
2023-04-01T04:09:25.057Z,592.00
2023-04-01T04:10:25.053Z,590.00
2023-04-01T04:11:25.151Z,587.00
2023-04-01T04:12:25.146Z,586.00
2023-04-01T04:13:25.216Z,582.00
2023-04-01T04:14:25.256Z,580.00
2023-04-01T04:15:25.271Z,582.00
2023-04-01T04:16:25.337Z,585.00
2023-04-01T04:17:25.355Z,585.00
2023-04-01T04:18:25.377Z,586.00
2023-04-01T04:19:25.407Z,586.00
2023-04-01T04:20:25.471Z,587.00
2023-04-01T04:21:25.541Z,586.00
2023-04-01T04:22:25.580Z,585.00
2023-04-01T04:23:25.637Z,585.00
2023-04-01T04:24:25.663Z,583.00
2023-04-01T04:25:25.684Z,583.00
2023-04-01T04:26:25.733Z,583.00
2023-04-01T04:27:25.789Z,583.00
2023-04-01T04:28:25.862Z,584.00
2023-04-01T04:29:25.899Z,584.00
2023-04-01T04:30:25.939Z,585.00
2023-04-01T04:31:26.049Z,585.00
2023-04-01T04:32:26.076Z,585.00
2023-04-01T04:33:26.099Z,585.00
2023-04-01T04:34:26.190Z,586.00
2023-04-01T04:35:26.223Z,584.00
2023-04-01T04:36:26.262Z,582.00
2023-04-01T04:37:26.332Z,581.00
2023-04-01T04:38:26.392Z,581.00
2023-04-01T04:39:26.456Z,579.00
2023-04-01T04:40:26.471Z,577.00
2023-04-01T04:41:26.503Z,577.00
2023-04-01T04:42:26.580Z,578.00
2023-04-01T04:43:26.669Z,582.00
2023-04-01T04:44:26.699Z,581.00
2023-04-01T04:45:26.753Z,581.00
2023-04-01T04:46:26.860Z,580.00
2023-04-01T04:47:26.870Z,580.00
2023-04-01T04:48:26.919Z,580.00
2023-04-01T04:49:26.987Z,580.00
2023-04-01T04:50:27.017Z,577.00
2023-04-01T04:51:27.097Z,575.00
2023-04-01T04:52:27.138Z,575.00
2023-04-01T04:53:27.251Z,574.00
2023-04-01T04:54:27.255Z,572.00
2023-04-01T04:55:27.316Z,570.00
2023-04-01T04:56:27.357Z,572.00
2023-04-01T04:57:27.522Z,571.00
2023-04-01T04:58:27.490Z,572.00
2023-04-01T04:59:27.618Z,574.00
2023-04-01T05:00:27.617Z,577.00
2023-04-01T05:01:27.673Z,575.00
2023-04-01T05:02:27.748Z,575.00
2023-04-01T05:03:27.804Z,575.00
2023-04-01T05:04:27.810Z,578.00
2023-04-01T05:05:27.873Z,579.00
2023-04-01T05:06:27.918Z,578.00
2023-04-01T05:07:28.016Z,576.00
2023-04-01T05:08:28.071Z,576.00
2023-04-01T05:09:28.132Z,576.00
2023-04-01T05:10:28.192Z,576.00
2023-04-01T05:11:28.274Z,579.00
2023-04-01T05:12:28.301Z,579.00
2023-04-01T05:13:28.366Z,580.00
2023-04-01T05:14:28.427Z,579.00
2023-04-01T05:15:28.505Z,580.00
2023-04-01T05:16:28.555Z,580.00
2023-04-01T05:17:28.608Z,581.00
2023-04-01T05:18:28.672Z,582.00
2023-04-01T05:19:28.725Z,586.00
2023-04-01T05:20:28.790Z,586.00
2023-04-01T05:21:28.863Z,586.00
2023-04-01T05:22:28.935Z,586.00
2023-04-01T05:23:28.955Z,585.00
2023-04-01T05:24:29.013Z,583.00
2023-04-01T05:25:29.080Z,579.00
2023-04-01T05:26:29.154Z,579.00
2023-04-01T05:27:29.195Z,579.00
2023-04-01T05:28:29.244Z,578.00
2023-04-01T05:29:29.327Z,578.00
2023-04-01T05:30:29.337Z,579.00
2023-04-01T05:31:29.450Z,580.00
2023-04-01T05:32:30.057Z,579.00
2023-04-01T05:33:29.506Z,579.00
2023-04-01T05:34:29.550Z,579.00
2023-04-01T05:35:29.665Z,579.00
2023-04-01T05:36:29.680Z,578.00
2023-04-01T05:37:29.731Z,580.00
2023-04-01T05:38:29.798Z,578.00
2023-04-01T05:39:29.871Z,578.00
2023-04-01T05:40:29.927Z,578.00
2023-04-01T05:41:29.976Z,579.00
2023-04-01T05:42:30.022Z,575.00
2023-04-01T05:43:30.075Z,573.00
2023-04-01T05:44:30.138Z,570.00
2023-04-01T05:45:30.194Z,570.00
2023-04-01T05:46:30.303Z,571.00
2023-04-01T05:47:30.304Z,570.00
2023-04-01T05:48:30.401Z,571.00
2023-04-01T05:49:30.442Z,574.00
2023-04-01T05:50:30.465Z,575.00
2023-04-01T05:51:30.546Z,576.00
2023-04-01T05:52:30.587Z,577.00
2023-04-01T05:53:30.669Z,579.00
2023-04-01T05:54:30.724Z,580.00
2023-04-01T05:55:30.788Z,577.00
2023-04-01T05:56:30.813Z,576.00
2023-04-01T05:57:30.921Z,571.00
2023-04-01T05:58:30.934Z,572.00
2023-04-01T05:59:31.005Z,573.00
2023-04-01T06:00:31.082Z,571.00
2023-04-01T06:01:31.122Z,572.00
2023-04-01T06:02:31.287Z,573.00
2023-04-01T06:03:31.359Z,572.00
2023-04-01T06:04:31.350Z,568.00
2023-04-01T06:05:31.479Z,565.00
2023-04-01T06:06:31.386Z,562.00
2023-04-01T06:07:31.436Z,562.00
2023-04-01T06:08:31.494Z,563.00
2023-04-01T06:09:31.526Z,565.00
2023-04-01T06:10:31.569Z,564.00
2023-04-01T06:11:31.668Z,564.00
2023-04-01T06:12:31.714Z,564.00
2023-04-01T06:13:31.791Z,565.00
2023-04-01T06:14:31.837Z,567.00
2023-04-01T06:15:32.129Z,570.00
2023-04-01T06:16:31.954Z,573.00
2023-04-01T06:17:31.950Z,570.00
2023-04-01T06:18:32.028Z,567.00
2023-04-01T06:19:32.071Z,568.00
2023-04-01T06:20:32.129Z,568.00
2023-04-01T06:21:32.197Z,570.00
2023-04-01T06:22:32.240Z,573.00
2023-04-01T06:23:32.305Z,571.00
2023-04-01T06:24:32.345Z,571.00
2023-04-01T06:25:32.638Z,571.00
2023-04-01T06:26:32.460Z,572.00
2023-04-01T06:27:32.493Z,571.00
2023-04-01T06:28:32.579Z,567.00
2023-04-01T06:29:32.610Z,567.00
2023-04-01T06:30:32.673Z,564.00
2023-04-01T06:31:32.775Z,567.00
2023-04-01T06:32:32.778Z,566.00
2023-04-01T06:33:32.852Z,567.00
2023-04-01T06:34:33.085Z,567.00
2023-04-01T06:35:33.205Z,567.00
2023-04-01T06:36:33.024Z,565.00
2023-04-01T06:37:33.054Z,565.00
2023-04-01T06:38:33.105Z,563.00
2023-04-01T06:39:34.166Z,562.00
2023-04-01T06:40:33.227Z,561.00
2023-04-01T06:41:33.290Z,562.00
2023-04-01T06:42:33.356Z,563.00
2023-04-01T06:43:33.392Z,562.00
2023-04-01T06:44:33.466Z,563.00
2023-04-01T06:45:33.699Z,563.00
2023-04-01T06:46:33.569Z,563.00
2023-04-01T06:47:33.633Z,565.00
2023-04-01T06:48:33.660Z,568.00
2023-04-01T06:49:33.705Z,567.00
2023-04-01T06:50:33.772Z,567.00
2023-04-01T06:51:33.849Z,564.00
2023-04-01T06:52:33.902Z,560.00
2023-04-01T06:53:33.909Z,562.00
2023-04-01T06:54:33.972Z,562.00
2023-04-01T06:55:34.316Z,564.00
2023-04-01T06:56:34.076Z,563.00
2023-04-01T06:57:34.149Z,562.00
2023-04-01T06:58:34.187Z,563.00
2023-04-01T06:59:34.235Z,562.00
2023-04-01T07:00:34.281Z,562.00
2023-04-01T07:01:34.412Z,562.00
2023-04-01T07:02:34.417Z,562.00
2023-04-01T07:03:34.426Z,561.00
2023-04-01T07:04:34.492Z,561.00
2023-04-01T07:05:34.670Z,563.00
2023-04-01T07:06:34.521Z,563.00
2023-04-01T07:07:34.550Z,567.00
2023-04-01T07:08:34.609Z,568.00
2023-04-01T07:09:34.625Z,567.00
2023-04-01T07:10:35.006Z,562.00
2023-04-01T07:11:34.692Z,559.00
2023-04-01T07:12:34.744Z,556.00
2023-04-01T07:13:34.787Z,554.00
2023-04-01T07:14:34.823Z,558.00
2023-04-01T07:15:35.108Z,557.00
2023-04-01T07:16:34.938Z,557.00
2023-04-01T07:17:34.960Z,558.00
2023-04-01T07:18:34.959Z,558.00
2023-04-01T07:19:34.995Z,560.00
2023-04-01T07:20:34.961Z,558.00
2023-04-01T07:21:34.948Z,558.00
2023-04-01T07:22:34.930Z,557.00
2023-04-01T07:23:34.933Z,556.00
2023-04-01T07:24:34.979Z,557.00
2023-04-01T07:25:35.275Z,557.00
2023-04-01T07:26:34.945Z,558.00
2023-04-01T07:27:34.918Z,558.00
2023-04-01T07:28:35.038Z,558.00
2023-04-01T07:29:34.920Z,561.00
2023-04-01T07:30:34.926Z,560.00
2023-04-01T07:31:34.940Z,560.00
2023-04-01T07:32:36.182Z,561.00
2023-04-01T07:33:34.899Z,559.00
2023-04-01T07:34:34.863Z,557.00
2023-04-01T07:35:35.163Z,556.00
2023-04-01T07:36:34.854Z,562.00
2023-04-01T07:37:34.842Z,562.00
2023-04-01T07:38:34.896Z,562.00
2023-04-01T07:39:35.071Z,559.00
2023-04-01T07:40:34.836Z,559.00
2023-04-01T07:41:34.825Z,557.00
2023-04-01T07:42:34.835Z,559.00
2023-04-01T07:43:34.832Z,560.00
2023-04-01T07:44:34.819Z,558.00
2023-04-01T07:45:35.175Z,560.00
2023-04-01T07:46:34.861Z,559.00
2023-04-01T07:47:34.818Z,559.00
2023-04-01T07:48:34.836Z,558.00
2023-04-01T07:49:34.784Z,558.00
2023-04-01T07:50:34.747Z,558.00
2023-04-01T07:51:34.771Z,557.00
2023-04-01T07:52:34.746Z,556.00
2023-04-01T07:53:34.755Z,561.00
2023-04-01T07:54:34.810Z,562.00
2023-04-01T07:55:35.163Z,564.00
2023-04-01T07:56:34.869Z,564.00
2023-04-01T07:57:34.875Z,563.00
2023-04-01T07:58:34.938Z,563.00
2023-04-01T07:59:34.981Z,561.00
2023-04-01T08:00:34.998Z,561.00
2023-04-01T08:01:35.017Z,560.00
2023-04-01T08:02:35.126Z,562.00
2023-04-01T08:03:35.185Z,564.00
2023-04-01T08:04:35.164Z,565.00
2023-04-01T08:05:35.564Z,563.00
2023-04-01T08:06:35.170Z,562.00
2023-04-01T08:07:35.212Z,563.00
2023-04-01T08:08:35.224Z,560.00
2023-04-01T08:09:35.282Z,559.00
2023-04-01T08:10:35.279Z,559.00
2023-04-01T08:11:35.351Z,560.00
2023-04-01T08:12:35.338Z,559.00
2023-04-01T08:13:35.479Z,556.00
2023-04-01T08:14:35.413Z,554.00
2023-04-01T08:15:35.636Z,555.00
2023-04-01T08:16:35.594Z,554.00
2023-04-01T08:17:35.589Z,556.00
2023-04-01T08:18:35.522Z,558.00
2023-04-01T08:19:35.587Z,558.00
2023-04-01T08:20:35.593Z,557.00
2023-04-01T08:21:35.611Z,558.00
2023-04-01T08:22:35.651Z,557.00
2023-04-01T08:23:35.688Z,557.00
2023-04-01T08:24:46.447Z,556.00
2023-04-01T08:25:36.730Z,560.00
2023-04-01T08:26:35.702Z,560.00
2023-04-01T08:27:35.708Z,561.00
2023-04-01T08:28:35.717Z,563.00
2023-04-01T08:29:35.722Z,563.00
2023-04-01T08:30:35.682Z,560.00
2023-04-01T08:31:36.626Z,558.00
2023-04-01T08:32:35.690Z,556.00
2023-04-01T08:33:35.647Z,557.00
2023-04-01T08:34:35.672Z,556.00
2023-04-01T08:35:38.313Z,556.00
2023-04-01T08:36:35.677Z,556.00
2023-04-01T08:37:35.626Z,555.00
2023-04-01T08:38:35.639Z,555.00
2023-04-01T08:39:35.646Z,554.00
2023-04-01T08:40:35.643Z,554.00
2023-04-01T08:41:35.636Z,555.00
2023-04-01T08:42:35.614Z,554.00
2023-04-01T08:43:35.617Z,555.00
2023-04-01T08:44:35.621Z,556.00
2023-04-01T08:45:35.851Z,555.00
2023-04-01T08:46:35.595Z,557.00
2023-04-01T08:47:35.584Z,557.00
2023-04-01T08:48:35.599Z,557.00
2023-04-01T08:49:35.593Z,553.00
2023-04-01T08:50:35.540Z,551.00
2023-04-01T08:51:35.567Z,550.00
2023-04-01T08:52:35.537Z,551.00
2023-04-01T08:53:35.535Z,549.00
2023-04-01T08:54:35.553Z,550.00
2023-04-01T08:55:35.772Z,553.00
2023-04-01T08:56:35.510Z,553.00
2023-04-01T08:57:35.563Z,554.00
2023-04-01T08:58:35.512Z,555.00
2023-04-01T08:59:35.512Z,553.00
2023-04-01T09:00:35.532Z,553.00
2023-04-01T09:01:35.506Z,548.00
2023-04-01T09:02:35.557Z,546.00
2023-04-01T09:03:35.566Z,545.00
2023-04-01T09:04:35.499Z,544.00
2023-04-01T09:05:35.546Z,546.00
2023-04-01T09:06:35.462Z,547.00
2023-04-01T09:07:35.443Z,549.00
2023-04-01T09:08:35.476Z,549.00
2023-04-01T09:09:35.488Z,547.00
2023-04-01T09:10:35.442Z,546.00
2023-04-01T09:11:35.438Z,546.00
2023-04-01T09:12:35.426Z,543.00
2023-04-01T09:13:35.448Z,540.00
2023-04-01T09:14:35.395Z,539.00
2023-04-01T09:15:35.734Z,539.00
2023-04-01T09:16:35.425Z,540.00
2023-04-01T09:17:35.402Z,540.00
2023-04-01T09:18:35.374Z,542.00
2023-04-01T09:19:35.390Z,542.00
2023-04-01T09:20:35.391Z,543.00
2023-04-01T09:21:35.380Z,544.00
2023-04-01T09:22:35.384Z,546.00
2023-04-01T09:23:35.336Z,546.00
2023-04-01T09:24:35.429Z,546.00
2023-04-01T09:25:35.752Z,547.00
2023-04-01T09:26:35.343Z,547.00
2023-04-01T09:27:35.320Z,546.00
2023-04-01T09:28:35.324Z,546.00
2023-04-01T09:29:35.310Z,545.00
2023-04-01T09:30:35.314Z,545.00
2023-04-01T09:31:35.368Z,544.00
2023-04-01T09:32:35.374Z,542.00
2023-04-01T09:33:35.314Z,540.00
2023-04-01T09:34:35.316Z,537.00
2023-04-01T09:35:35.562Z,534.00
2023-04-01T09:36:35.278Z,534.00
2023-04-01T09:37:35.273Z,533.00
2023-04-01T09:38:35.291Z,531.00
2023-04-01T09:39:35.280Z,529.00
2023-04-01T09:40:35.263Z,529.00
2023-04-01T09:41:35.329Z,526.00
2023-04-01T09:42:35.277Z,526.00
2023-04-01T09:43:35.286Z,528.00
2023-04-01T09:44:35.227Z,527.00
2023-04-01T09:45:35.223Z,526.00
2023-04-01T09:46:35.265Z,525.00
2023-04-01T09:47:35.293Z,526.00
2023-04-01T09:48:35.290Z,526.00
2023-04-01T09:49:35.319Z,529.00
2023-04-01T09:50:35.346Z,530.00
2023-04-01T09:51:35.380Z,531.00
2023-04-01T09:52:35.362Z,532.00
2023-04-01T09:53:35.399Z,532.00
2023-04-01T09:54:35.400Z,531.00
2023-04-01T09:55:35.575Z,532.00
2023-04-01T09:56:35.461Z,533.00
2023-04-01T09:57:35.582Z,532.00
2023-04-01T09:58:35.518Z,532.00
2023-04-01T09:59:36.529Z,533.00
2023-04-01T10:00:35.491Z,536.00
2023-04-01T10:01:35.533Z,537.00
2023-04-01T10:02:35.554Z,539.00
2023-04-01T10:03:35.508Z,540.00
2023-04-01T10:04:35.467Z,541.00
2023-04-01T10:05:35.776Z,542.00
2023-04-01T10:06:35.477Z,538.00
2023-04-01T10:07:35.468Z,536.00
2023-04-01T10:08:35.451Z,534.00
2023-04-01T10:09:35.474Z,535.00
2023-04-01T10:10:35.428Z,534.00
2023-04-01T10:11:35.441Z,533.00
2023-04-01T10:12:35.403Z,531.00
2023-04-01T10:13:35.418Z,529.00
2023-04-01T10:14:35.376Z,528.00
2023-04-01T10:15:35.694Z,524.00
2023-04-01T10:16:35.473Z,522.00
2023-04-01T10:17:35.468Z,521.00
2023-04-01T10:18:35.382Z,524.00
2023-04-01T10:19:35.446Z,524.00
2023-04-01T10:20:35.482Z,525.00
2023-04-01T10:21:35.463Z,527.00
2023-04-01T10:22:35.480Z,528.00
2023-04-01T10:23:35.514Z,530.00
2023-04-01T10:24:35.501Z,532.00
2023-04-01T10:25:35.770Z,533.00
2023-04-01T10:26:35.555Z,531.00
2023-04-01T10:27:35.569Z,530.00
2023-04-01T10:28:35.551Z,530.00
2023-04-01T10:29:35.581Z,531.00
2023-04-01T10:30:35.633Z,532.00
2023-04-01T10:31:35.629Z,532.00
2023-04-01T10:32:35.650Z,529.00
2023-04-01T10:33:35.664Z,529.00
2023-04-01T10:34:35.634Z,529.00
2023-04-01T10:35:36.081Z,528.00
2023-04-01T10:36:35.669Z,527.00
2023-04-01T10:37:35.710Z,527.00
2023-04-01T10:38:35.744Z,528.00
2023-04-01T10:39:35.753Z,526.00
2023-04-01T10:40:35.869Z,526.00
2023-04-01T10:41:35.731Z,526.00
2023-04-01T10:42:35.777Z,528.00
2023-04-01T10:43:35.772Z,526.00
2023-04-01T10:44:35.800Z,525.00
2023-04-01T10:45:36.228Z,522.00
2023-04-01T10:46:35.895Z,521.00
2023-04-01T10:47:35.876Z,521.00
2023-04-01T10:48:35.849Z,520.00
2023-04-01T10:49:35.860Z,519.00
2023-04-01T10:50:35.868Z,520.00
2023-04-01T10:51:35.903Z,521.00
2023-04-01T10:52:35.912Z,522.00
2023-04-01T10:53:35.899Z,524.00
2023-04-01T10:54:35.930Z,524.00
2023-04-01T10:55:36.212Z,523.00
2023-04-01T10:56:35.946Z,521.00
2023-04-01T10:57:36.233Z,520.00
2023-04-01T10:58:35.950Z,523.00
2023-04-01T10:59:35.971Z,520.00
2023-04-01T11:00:36.002Z,519.00
2023-04-01T11:01:36.013Z,516.00
2023-04-01T11:02:36.097Z,514.00
2023-04-01T11:03:36.160Z,515.00
2023-04-01T11:04:36.029Z,511.00
2023-04-01T11:05:36.223Z,512.00
2023-04-01T11:06:36.037Z,513.00
2023-04-01T11:07:36.066Z,513.00
2023-04-01T11:08:36.087Z,513.00
2023-04-01T11:09:36.067Z,514.00
2023-04-01T11:10:36.082Z,513.00
2023-04-01T11:11:36.089Z,514.00
2023-04-01T11:12:36.103Z,513.00
2023-04-01T11:13:36.080Z,515.00
2023-04-01T11:14:36.091Z,515.00
2023-04-01T11:15:36.418Z,518.00
2023-04-01T11:16:36.301Z,518.00
2023-04-01T11:17:36.176Z,519.00
2023-04-01T11:18:36.174Z,521.00
2023-04-01T11:19:36.130Z,521.00
2023-04-01T11:20:36.142Z,523.00
2023-04-01T11:21:36.100Z,523.00
2023-04-01T11:22:36.121Z,520.00
2023-04-01T11:23:36.134Z,518.00
2023-04-01T11:24:36.099Z,518.00
2023-04-01T11:25:36.112Z,517.00
2023-04-01T11:26:36.169Z,517.00
2023-04-01T11:27:38.917Z,514.00
2023-04-01T11:28:36.105Z,511.00
2023-04-01T11:29:37.451Z,511.00
2023-04-01T11:30:36.075Z,513.00
2023-04-01T11:31:36.083Z,513.00
2023-04-01T11:32:36.116Z,511.00
2023-04-01T11:33:36.065Z,510.00
2023-04-01T11:34:36.038Z,509.00
2023-04-01T11:35:36.275Z,507.00
2023-04-01T11:36:36.064Z,507.00
2023-04-01T11:37:36.032Z,508.00
2023-04-01T11:38:36.657Z,508.00
2023-04-01T11:39:36.025Z,506.00
2023-04-01T11:40:36.036Z,505.00
2023-04-01T11:41:36.026Z,507.00
2023-04-01T11:42:36.022Z,506.00
2023-04-01T11:43:36.023Z,505.00
2023-04-01T11:44:35.995Z,501.00
2023-04-01T11:45:36.064Z,500.00
2023-04-01T11:46:36.029Z,501.00
2023-04-01T11:47:35.996Z,501.00
2023-04-01T11:48:35.973Z,501.00
2023-04-01T11:49:35.955Z,501.00
2023-04-01T11:50:35.967Z,503.00
2023-04-01T11:51:35.974Z,504.00
2023-04-01T11:52:35.987Z,506.00
2023-04-01T11:53:35.935Z,506.00
2023-04-01T11:54:35.923Z,505.00
2023-04-01T11:55:36.120Z,506.00
2023-04-01T11:56:35.933Z,506.00
2023-04-01T11:57:35.956Z,505.00
2023-04-01T11:58:35.913Z,503.00
2023-04-01T11:59:35.936Z,501.00
2023-04-01T12:00:35.901Z,502.00
2023-04-01T12:01:35.923Z,504.00
2023-04-01T12:02:35.954Z,506.00
2023-04-01T12:03:36.150Z,506.00
2023-04-01T12:04:35.942Z,506.00
2023-04-01T12:05:36.184Z,506.00
2023-04-01T12:06:35.871Z,507.00
2023-04-01T12:07:35.893Z,509.00
2023-04-01T12:08:35.836Z,510.00
2023-04-01T12:09:35.848Z,510.00
2023-04-01T12:10:35.837Z,510.00
2023-04-01T12:11:35.834Z,509.00
2023-04-01T12:12:35.821Z,512.00
2023-04-01T12:13:35.836Z,515.00
2023-04-01T12:14:35.812Z,517.00
2023-04-01T12:15:35.985Z,516.00
2023-04-01T12:16:35.833Z,514.00
2023-04-01T12:17:35.859Z,512.00
2023-04-01T12:18:35.782Z,510.00
2023-04-01T12:19:35.778Z,509.00
2023-04-01T12:20:35.832Z,510.00
2023-04-01T12:21:35.780Z,508.00
2023-04-01T12:22:35.766Z,506.00
2023-04-01T12:23:35.785Z,504.00
2023-04-01T12:24:35.757Z,504.00
2023-04-01T12:25:35.955Z,502.00
2023-04-01T12:26:35.754Z,500.00
2023-04-01T12:27:35.737Z,500.00
2023-04-01T12:28:35.727Z,499.00